Date,TemperatureHighF,TemperatureAvgF,TemperatureLowF,DewpointHighF,DewpointAvgF,DewpointLowF,HumidityHigh,HumidityAvg,HumidityLow,PressureMaxIn,PressureMinIn,WindSpeedMaxMPH,WindSpeedAvgMPH,GustSpeedMaxMPH,PrecipitationSumIn
2013-2-1,29.0,21.4,14.0,18.0,10.2,3.0,77,62,48,0.00,40.00,0,-999,0,0.00
2013-2-2,29.0,18.5,10.0,13.0,7.1,2.0,77,61,48,0.00,40.00,0,-999,0,0.00
2013-2-3,33.0,18.6,10.0,21.0,11.7,6.0,85,75,53,0.00,40.00,0,-999,0,0.00
2013-2-4,29.0,16.6,8.0,14.0,8.2,4.0,85,70,49,0.00,40.00,0,-999,0,0.00
2013-2-5,29.0,20.3,15.0,18.0,13.0,7.0,86,73,62,0.00,40.00,0,-999,0,0.00
2013-2-6,38.0,25.4,17.0,26.0,16.5,3.0,89,70,52,0.00,40.00,0,-999,0,0.00
2013-2-7,30.0,19.1,7.0,11.0,6.4,0.0,76,58,43,0.00,40.00,0,-999,0,0.00
2013-2-8,29.0,22.2,15.0,26.0,17.4,6.0,92,82,56,0.00,40.00,0,-999,0,0.00
2013-2-9,24.0,16.1,9.0,17.0,9.6,-2.0,92,76,56,0.00,40.00,0,-999,0,0.00
2013-2-10,40.0,19.4,1.0,13.0,-8.9,-99.9,66,44,30,0.00,40.00,0,-999,0,0.00
2013-2-11,42.0,32.8,14.0,40.0,28.9,4.0,97,86,58,0.00,40.00,0,-999,0,0.00
2013-2-12,42.0,34.3,28.0,35.0,27.7,20.0,97,77,59,0.00,40.00,0,-999,0,0.00
2013-2-13,41.0,31.1,27.0,27.0,21.9,19.0,80,69,51,0.00,40.00,0,-999,0,0.00
2013-2-14,44.0,30.1,19.0,25.0,21.1,16.0,89,71,44,0.00,40.00,0,-999,0,0.00
2013-2-15,50.0,34.2,24.0,36.0,27.7,20.0,93,79,56,0.00,40.00,0,-999,0,0.00
2013-2-16,37.0,30.1,23.0,29.0,24.4,17.0,93,80,67,0.00,40.00,0,-999,0,0.00
2013-2-17,24.0,16.9,8.0,19.0,5.2,-3.0,84,60,43,0.00,40.00,0,-999,0,0.00
2013-2-18,27.0,15.0,6.0,4.0,-23.2,-99.9,63,35,12,0.00,40.00,0,-999,0,0.00
2013-2-19,45.0,30.6,12.0,37.0,23.0,2.0,94,74,58,0.00,40.00,0,-999,0,0.00
2013-2-20,34.0,26.1,18.0,33.0,17.1,9.0,95,69,50,0.00,40.00,0,-999,0,0.00
2013-2-21,27.0,20.8,17.0,13.0,10.7,9.0,76,65,50,0.00,40.00,0,-999,0,0.00
2013-2-22,43.0,26.7,13.0,25.0,17.5,9.0,86,69,45,0.00,40.00,0,-999,0,0.00
2013-2-23,34.0,29.7,27.0,31.0,25.8,20.0,94,85,76,0.00,40.00,0,-999,0,0.00
2013-2-24,37.0,32.0,29.0,34.0,30.1,27.0,96,92,87,0.00,40.00,0,-999,0,0.00
2013-2-25,39.0,30.9,22.0,33.0,27.3,21.0,95,87,72,0.00,40.00,0,-999,0,0.00
2013-2-26,43.0,33.0,29.0,33.0,27.4,23.0,93,81,62,0.00,40.00,0,-999,0,0.00
2013-2-27,40.0,34.2,30.0,39.0,32.7,26.0,97,94,85,0.00,40.00,0,-999,0,0.00
2013-2-28,49.0,34.5,29.0,42.0,31.6,27.0,96,90,74,0.00,40.00,0,-999,0,0.00